createdAt,value
2019-01-15T00:01:26.867Z,0.70
2019-01-15T00:03:56.972Z,0.80
2019-01-15T00:06:27.253Z,0.80
2019-01-15T00:08:57.411Z,0.80
2019-01-15T00:11:27.581Z,0.80
2019-01-15T00:13:58.124Z,0.80
2019-01-15T00:16:28.301Z,0.80
2019-01-15T00:18:58.476Z,0.80
2019-01-15T00:21:28.631Z,0.80
2019-01-15T00:23:58.719Z,0.80
2019-01-15T00:26:28.916Z,0.80
2019-01-15T00:28:59.067Z,0.70
2019-01-15T00:31:29.233Z,0.70
2019-01-15T00:33:59.339Z,0.70
2019-01-15T00:36:29.509Z,0.60
2019-01-15T00:38:59.676Z,0.50
2019-01-15T00:41:29.807Z,0.40
2019-01-15T00:43:59.981Z,0.40
2019-01-15T00:46:30.300Z,0.30
2019-01-15T00:49:00.476Z,0.30
2019-01-15T00:51:30.749Z,0.20
2019-01-15T00:54:00.865Z,0.30
2019-01-15T00:56:32.165Z,0.30
2019-01-15T00:59:02.308Z,0.30
2019-01-15T01:01:32.463Z,0.40
2019-01-15T01:04:02.606Z,0.50
2019-01-15T01:06:32.854Z,0.50
2019-01-15T01:09:04.609Z,0.50
2019-01-15T01:11:34.864Z,0.50
2019-01-15T01:14:04.927Z,0.50
2019-01-15T01:16:35.111Z,0.50
2019-01-15T01:19:05.271Z,0.50
2019-01-15T01:21:35.443Z,0.70
2019-01-15T01:24:05.591Z,0.70
2019-01-15T01:26:35.745Z,0.70
2019-01-15T01:29:05.913Z,0.70
2019-01-15T01:31:36.039Z,0.70
2019-01-15T01:34:06.085Z,0.70
2019-01-15T01:36:37.325Z,0.70
2019-01-15T01:39:08.547Z,0.70
2019-01-15T01:41:38.719Z,0.70
2019-01-15T01:44:08.985Z,0.70
2019-01-15T01:46:39.021Z,0.80
2019-01-15T01:49:09.113Z,0.80
2019-01-15T01:51:39.233Z,0.80
2019-01-15T01:54:09.469Z,0.80
2019-01-15T01:56:39.781Z,0.90
2019-01-15T01:59:09.925Z,0.90
2019-01-15T02:01:40.157Z,0.90
2019-01-15T02:04:10.242Z,0.90
2019-01-15T02:06:40.425Z,1.00
2019-01-15T02:09:10.702Z,0.90
2019-01-15T02:11:40.813Z,1.00
2019-01-15T02:14:11.158Z,1.00
2019-01-15T02:16:41.265Z,1.00
2019-01-15T02:19:11.413Z,1.10
2019-01-15T02:21:41.557Z,1.10
2019-01-15T02:24:11.743Z,1.10
2019-01-15T02:26:41.848Z,1.10
2019-01-15T02:29:11.969Z,1.10
2019-01-15T02:31:42.073Z,1.10
2019-01-15T02:34:12.230Z,1.10
2019-01-15T02:36:42.357Z,1.10
2019-01-15T02:39:12.470Z,1.20
2019-01-15T02:41:42.681Z,1.20
2019-01-15T02:44:12.803Z,1.20
2019-01-15T02:46:42.932Z,1.20
2019-01-15T02:49:13.109Z,1.20
2019-01-15T02:51:43.259Z,1.20
2019-01-15T02:54:13.481Z,1.30
2019-01-15T02:56:43.579Z,1.20
2019-01-15T02:59:13.679Z,1.30
2019-01-15T03:01:43.767Z,1.30
2019-01-15T03:04:13.869Z,1.30
2019-01-15T03:06:44.007Z,1.30
2019-01-15T03:09:14.230Z,1.30
2019-01-15T03:11:44.359Z,1.30
2019-01-15T03:14:14.728Z,1.30
2019-01-15T03:16:44.773Z,1.20
2019-01-15T03:19:15.090Z,1.30
2019-01-15T03:21:45.236Z,1.30
2019-01-15T03:24:15.438Z,1.30
2019-01-15T03:26:45.579Z,1.30
2019-01-15T03:29:15.769Z,1.30
2019-01-15T03:31:45.954Z,1.30
2019-01-15T03:34:16.137Z,1.30
2019-01-15T03:36:46.241Z,1.40
2019-01-15T03:39:16.451Z,1.40
2019-01-15T03:41:46.477Z,1.40
2019-01-15T03:44:16.638Z,1.50
2019-01-15T03:46:46.759Z,1.50
2019-01-15T03:49:16.967Z,1.40
2019-01-15T03:51:47.020Z,1.40
2019-01-15T03:54:17.170Z,1.50
2019-01-15T03:56:47.266Z,1.50
2019-01-15T03:59:17.457Z,1.50
2019-01-15T04:01:47.588Z,1.50
2019-01-15T04:04:17.845Z,1.40
2019-01-15T04:06:47.965Z,1.40
2019-01-15T04:09:18.182Z,1.40
2019-01-15T04:11:48.229Z,1.40
2019-01-15T04:14:18.363Z,1.40
2019-01-15T04:16:48.417Z,1.50
2019-01-15T04:19:18.575Z,1.40
2019-01-15T04:21:48.663Z,1.50
2019-01-15T04:24:18.838Z,1.50
2019-01-15T04:26:48.960Z,1.50
2019-01-15T04:29:19.088Z,1.50
2019-01-15T04:31:49.117Z,1.50
2019-01-15T04:34:19.312Z,1.50
2019-01-15T04:36:49.343Z,1.50
2019-01-15T04:39:19.729Z,1.60
2019-01-15T04:41:49.932Z,1.60
2019-01-15T04:44:20.074Z,1.60
2019-01-15T04:46:50.072Z,1.60
2019-01-15T04:49:20.269Z,1.50
2019-01-15T04:51:50.381Z,1.50
2019-01-15T04:54:20.569Z,1.60
2019-01-15T04:56:50.778Z,1.60
2019-01-15T04:59:21.344Z,1.60
2019-01-15T05:01:51.485Z,1.60
2019-01-15T05:04:21.714Z,1.60
2019-01-15T05:06:51.841Z,1.60
2019-01-15T05:09:22.111Z,1.60
2019-01-15T05:11:52.294Z,1.60
2019-01-15T05:14:22.512Z,1.60
2019-01-15T05:16:52.540Z,1.70
2019-01-15T05:19:22.837Z,1.60
2019-01-15T05:21:52.953Z,1.60
2019-01-15T05:24:23.137Z,1.60
2019-01-15T05:26:53.227Z,1.50
2019-01-15T05:29:24.192Z,1.50
2019-01-15T05:31:55.100Z,1.50
2019-01-15T05:34:25.437Z,1.50
2019-01-15T05:36:55.524Z,1.40
2019-01-15T05:39:25.706Z,1.40
2019-01-15T05:41:55.841Z,1.40
2019-01-15T05:44:26.070Z,1.40
2019-01-15T05:46:56.154Z,1.40
2019-01-15T05:49:26.346Z,1.40
2019-01-15T05:51:56.476Z,1.40
2019-01-15T05:54:26.562Z,1.40
2019-01-15T05:56:56.808Z,1.40
2019-01-15T05:59:26.998Z,1.50
2019-01-15T06:01:57.263Z,1.50
2019-01-15T06:04:27.502Z,1.50
2019-01-15T06:06:59.335Z,1.50
2019-01-15T06:09:30.546Z,1.50
2019-01-15T06:12:00.663Z,1.50
2019-01-15T06:14:31.009Z,1.50
2019-01-15T06:17:01.155Z,1.60
2019-01-15T06:19:31.448Z,1.60
2019-01-15T06:22:01.597Z,1.60
2019-01-15T06:24:31.798Z,1.60
2019-01-15T06:27:01.939Z,1.60
2019-01-15T06:29:32.036Z,1.60
2019-01-15T06:32:02.140Z,1.60
2019-01-15T06:34:32.288Z,1.70
2019-01-15T06:37:02.425Z,1.70
2019-01-15T06:39:32.515Z,1.70
2019-01-15T06:42:02.693Z,1.70
2019-01-15T06:44:32.823Z,1.70
2019-01-15T06:47:02.860Z,1.70
2019-01-15T06:49:33.028Z,1.70
2019-01-15T06:52:03.151Z,1.70
2019-01-15T06:54:33.328Z,1.70
2019-01-15T06:57:03.527Z,1.70
2019-01-15T06:59:33.740Z,1.70
2019-01-15T07:02:03.790Z,1.70
2019-01-15T07:04:33.962Z,1.70
2019-01-15T07:07:04.152Z,1.70
2019-01-15T07:09:34.474Z,1.70
2019-01-15T07:12:04.632Z,1.70
2019-01-15T07:14:34.757Z,1.70
2019-01-15T07:17:05.004Z,1.70
2019-01-15T07:19:36.209Z,1.70
2019-01-15T07:22:06.274Z,1.70
2019-01-15T07:24:36.574Z,1.80
2019-01-15T07:27:06.698Z,1.70
2019-01-15T07:29:36.940Z,1.80
2019-01-15T07:32:07.053Z,1.80
2019-01-15T07:34:37.451Z,1.80
2019-01-15T07:37:07.576Z,1.80
2019-01-15T07:39:37.759Z,1.80
2019-01-15T07:42:07.864Z,1.80
2019-01-15T07:44:38.250Z,1.80
2019-01-15T07:47:08.430Z,1.80
2019-01-15T07:49:38.615Z,1.90
2019-01-15T07:52:08.783Z,1.90
2019-01-15T07:54:39.106Z,1.90
2019-01-15T07:57:09.369Z,1.90
2019-01-15T07:59:39.648Z,1.90
2019-01-15T08:02:10.746Z,1.90
2019-01-15T08:04:40.868Z,1.90
2019-01-15T08:07:11.058Z,2.00
2019-01-15T08:09:41.222Z,2.00
2019-01-15T08:12:11.512Z,2.00
2019-01-15T08:14:41.729Z,2.10
2019-01-15T08:17:11.929Z,2.10
2019-01-15T08:19:42.058Z,2.10
2019-01-15T08:22:12.202Z,2.20
2019-01-15T08:24:42.330Z,2.20
2019-01-15T08:27:12.439Z,2.20
2019-01-15T08:29:42.530Z,2.20
2019-01-15T08:32:12.682Z,2.20
2019-01-15T08:34:42.808Z,2.30
2019-01-15T08:37:13.168Z,2.30
2019-01-15T08:39:43.312Z,2.40
2019-01-15T08:42:13.436Z,2.40
2019-01-15T08:44:43.629Z,2.40
2019-01-15T08:47:13.848Z,2.40
2019-01-15T08:49:43.998Z,2.40
2019-01-15T08:52:14.162Z,2.50
2019-01-15T08:54:44.256Z,2.50
2019-01-15T08:57:14.322Z,2.50
2019-01-15T08:59:44.630Z,2.50
2019-01-15T09:02:14.816Z,2.50
2019-01-15T09:04:44.940Z,2.60
2019-01-15T09:07:15.040Z,2.60
2019-01-15T09:09:45.247Z,2.60
2019-01-15T09:12:15.368Z,2.70
2019-01-15T09:14:45.549Z,2.70
2019-01-15T09:17:15.666Z,2.70
2019-01-15T09:19:45.801Z,2.70
2019-01-15T09:22:15.848Z,2.70
2019-01-15T09:24:46.086Z,2.70
2019-01-15T09:27:16.577Z,2.70
2019-01-15T09:29:46.700Z,2.70
2019-01-15T09:32:16.829Z,2.70
2019-01-15T09:34:47.012Z,2.70
2019-01-15T09:37:17.586Z,2.70
2019-01-15T09:39:47.708Z,2.80
2019-01-15T09:42:18.415Z,2.70
2019-01-15T09:44:48.663Z,2.80
2019-01-15T09:47:18.778Z,2.80
2019-01-15T09:49:48.952Z,2.80
2019-01-15T09:52:20.527Z,2.80
2019-01-15T09:54:50.983Z,2.80
2019-01-15T09:57:21.032Z,2.90
2019-01-15T09:59:51.169Z,2.90
2019-01-15T10:02:21.317Z,3.00
2019-01-15T10:04:51.406Z,3.00
2019-01-15T10:07:21.492Z,3.00
2019-01-15T10:09:51.644Z,3.00
2019-01-15T10:12:21.726Z,3.00
2019-01-15T10:14:51.895Z,2.90
2019-01-15T10:17:21.946Z,2.90
2019-01-15T10:19:52.174Z,2.90
2019-01-15T10:22:22.361Z,2.90
2019-01-15T10:24:52.518Z,2.90
2019-01-15T10:27:22.764Z,3.00
2019-01-15T10:29:59.124Z,2.90
2019-01-15T10:32:49.743Z,2.90
2019-01-15T10:35:25.216Z,2.90
2019-01-15T10:37:55.251Z,2.90
2019-01-15T10:40:25.431Z,2.90
2019-01-15T10:42:55.442Z,2.90
2019-01-15T10:45:25.553Z,2.90
2019-01-15T10:47:57.264Z,2.90
2019-01-15T10:50:27.356Z,2.90
2019-01-15T10:52:57.403Z,2.80
2019-01-15T10:55:27.504Z,2.70
2019-01-15T10:57:58.497Z,2.80
2019-01-15T11:00:28.818Z,2.80
2019-01-15T11:02:58.970Z,2.70
2019-01-15T11:05:29.093Z,2.70
2019-01-15T11:07:59.166Z,2.60
2019-01-15T11:10:29.243Z,2.60
2019-01-15T11:12:59.265Z,2.60
2019-01-15T11:15:29.402Z,2.70
2019-01-15T11:17:59.584Z,2.70
2019-01-15T11:20:29.658Z,2.70
2019-01-15T11:22:59.688Z,2.70
2019-01-15T11:25:29.797Z,2.70
2019-01-15T11:27:59.951Z,2.80
2019-01-15T11:30:30.058Z,2.70
2019-01-15T11:33:00.080Z,2.70
2019-01-15T11:35:30.141Z,2.80
2019-01-15T11:38:00.208Z,2.80
2019-01-15T11:40:30.192Z,2.80
2019-01-15T11:43:00.260Z,2.90
2019-01-15T11:45:30.328Z,3.00
2019-01-15T11:48:00.385Z,2.90
2019-01-15T11:50:30.483Z,2.90
2019-01-15T11:53:00.721Z,2.90
2019-01-15T11:55:30.776Z,2.90
2019-01-15T11:58:00.827Z,2.90
2019-01-15T12:00:50.116Z,2.90
2019-01-15T12:03:31.415Z,3.00
2019-01-15T12:06:19.395Z,3.00
2019-01-15T12:09:07.279Z,3.10
2019-01-15T12:12:08.583Z,3.00
2019-01-15T12:15:01.142Z,3.10
2019-01-15T12:17:48.883Z,3.10
2019-01-15T12:20:32.975Z,3.10
2019-01-15T12:23:20.880Z,3.10
2019-01-15T12:26:12.692Z,3.20
2019-01-15T12:29:05.456Z,3.30
2019-01-15T12:32:05.109Z,3.20
2019-01-15T12:34:57.227Z,3.30
2019-01-15T12:37:45.145Z,3.30
2019-01-15T12:40:52.415Z,3.30
2019-01-15T12:43:41.465Z,3.30
2019-01-15T12:46:29.386Z,3.20
2019-01-15T12:49:17.522Z,3.20
2019-01-15T12:52:06.735Z,3.10
2019-01-15T12:54:54.597Z,3.10
2019-01-15T12:57:46.716Z,3.10
2019-01-15T13:00:31.503Z,3.10
2019-01-15T13:03:19.792Z,3.00
2019-01-15T13:06:18.653Z,2.90
2019-01-15T13:09:10.866Z,3.00
2019-01-15T13:12:08.801Z,2.90
2019-01-15T13:15:03.909Z,2.90
2019-01-15T13:17:58.902Z,2.90
2019-01-15T13:21:04.050Z,2.90
2019-01-15T13:24:02.547Z,2.90
2019-01-15T13:27:03.576Z,2.90
2019-01-15T13:29:48.540Z,2.80
2019-01-15T13:32:28.287Z,2.90
2019-01-15T13:35:24.981Z,2.90
2019-01-15T13:38:08.555Z,2.80
2019-01-15T13:40:57.609Z,2.90
2019-01-15T13:43:52.687Z,2.90
2019-01-15T13:46:39.958Z,2.90
2019-01-15T13:49:23.547Z,2.90
2019-01-15T13:52:11.178Z,3.00
2019-01-15T13:55:03.015Z,2.90
2019-01-15T13:57:52.111Z,2.90
2019-01-15T14:00:45.090Z,3.00
2019-01-15T14:03:39.926Z,2.90
2019-01-15T14:06:34.961Z,2.90
2019-01-15T14:09:43.524Z,2.90
2019-01-15T14:12:22.502Z,2.90
2019-01-15T14:15:29.857Z,2.90
2019-01-15T14:18:09.704Z,2.90
2019-01-15T14:20:57.684Z,2.90
2019-01-15T14:23:41.590Z,3.00
2019-01-15T14:26:30.748Z,2.90
2019-01-15T14:29:18.537Z,2.90
2019-01-15T14:32:13.624Z,2.90
2019-01-15T14:35:01.570Z,2.90
2019-01-15T14:37:55.071Z,2.90
2019-01-15T14:40:42.880Z,2.90
2019-01-15T14:43:30.951Z,2.90
2019-01-15T14:46:26.046Z,2.90
2019-01-15T14:49:08.431Z,2.80
2019-01-15T14:52:06.727Z,2.80
2019-01-15T14:54:45.614Z,2.90
2019-01-15T14:57:23.479Z,2.90
2019-01-15T15:00:09.592Z,2.80
2019-01-15T15:02:57.248Z,2.80
2019-01-15T15:05:45.389Z,2.80
2019-01-15T15:08:30.874Z,2.80
2019-01-15T15:11:19.954Z,2.90
2019-01-15T15:14:11.897Z,2.90
2019-01-15T15:16:56.534Z,2.90
2019-01-15T15:19:39.467Z,2.90
2019-01-15T15:22:31.327Z,2.80
2019-01-15T15:25:27.197Z,2.90
2019-01-15T15:28:15.091Z,2.90
2019-01-15T15:31:02.854Z,3.00
2019-01-15T15:33:50.856Z,2.90
2019-01-15T15:36:45.921Z,2.90
2019-01-15T15:39:34.940Z,2.90
2019-01-15T15:42:14.712Z,2.90
2019-01-15T15:45:12.821Z,2.90
2019-01-15T15:47:53.816Z,2.90
2019-01-15T15:50:41.563Z,2.80
2019-01-15T15:53:36.417Z,2.80
2019-01-15T15:56:29.791Z,2.80
2019-01-15T15:59:21.986Z,2.80
2019-01-15T16:02:09.670Z,2.70
2019-01-15T16:05:04.644Z,2.80
2019-01-15T16:08:03.142Z,2.80
2019-01-15T16:11:04.164Z,2.80
2019-01-15T16:13:59.524Z,2.80
2019-01-15T16:17:00.693Z,2.80
2019-01-15T16:19:49.803Z,2.80
2019-01-15T16:22:41.639Z,2.80
2019-01-15T16:25:30.222Z,2.90
2019-01-15T16:28:18.372Z,2.90
2019-01-15T16:31:24.045Z,2.80
2019-01-15T16:34:25.276Z,2.90
2019-01-15T16:37:09.216Z,2.90
2019-01-15T16:40:04.391Z,2.90
2019-01-15T16:43:05.845Z,2.90
2019-01-15T16:46:01.195Z,2.90
2019-01-15T16:48:59.588Z,3.00
2019-01-15T16:51:47.460Z,3.00
2019-01-15T16:54:45.912Z,3.00
2019-01-15T16:57:33.794Z,3.00
2019-01-15T17:00:22.612Z,3.10
2019-01-15T17:03:10.755Z,3.10
2019-01-15T17:05:58.714Z,3.10
2019-01-15T17:09:03.089Z,3.10
2019-01-15T17:11:52.816Z,3.10
2019-01-15T17:14:40.715Z,3.10
2019-01-15T17:17:29.793Z,3.20
2019-01-15T17:20:17.753Z,3.20
2019-01-15T17:23:05.288Z,3.30
2019-01-15T17:26:09.798Z,3.30
2019-01-15T17:28:49.549Z,3.30
2019-01-15T17:31:32.138Z,3.30
2019-01-15T17:34:13.470Z,3.30
2019-01-15T17:37:05.740Z,3.30
2019-01-15T17:39:54.940Z,3.40
2019-01-15T17:42:50.420Z,3.50
2019-01-15T17:45:31.724Z,3.50
2019-01-15T17:48:29.956Z,3.50
2019-01-15T17:51:17.865Z,3.50
2019-01-15T17:54:01.934Z,3.50
2019-01-15T17:56:59.802Z,3.50
2019-01-15T18:00:01.228Z,3.50
2019-01-15T18:02:54.452Z,3.50
2019-01-15T18:05:43.501Z,3.60
2019-01-15T18:08:33.030Z,3.50
2019-01-15T18:11:28.232Z,3.50
2019-01-15T18:14:16.005Z,3.60
2019-01-15T18:16:58.403Z,3.60
2019-01-15T18:19:47.370Z,3.60
2019-01-15T18:22:35.537Z,3.60
2019-01-15T18:25:43.483Z,3.60
2019-01-15T18:28:41.491Z,3.60
2019-01-15T18:31:32.463Z,3.60
2019-01-15T18:34:30.626Z,3.70
2019-01-15T18:37:31.782Z,3.70
2019-01-15T18:40:16.487Z,3.70
2019-01-15T18:43:05.531Z,3.70
2019-01-15T18:45:44.888Z,3.80
2019-01-15T18:48:40.229Z,3.80
2019-01-15T18:51:41.765Z,3.80
2019-01-15T18:54:31.359Z,3.80
2019-01-15T18:57:35.636Z,3.80
2019-01-15T19:00:26.204Z,3.90
2019-01-15T19:03:14.044Z,3.90
2019-01-15T19:06:09.373Z,3.90
2019-01-15T19:08:58.602Z,3.90
2019-01-15T19:11:47.680Z,4.00
2019-01-15T19:14:34.229Z,4.00
2019-01-15T19:17:38.756Z,4.00
2019-01-15T19:20:34.853Z,4.00
2019-01-15T19:23:29.735Z,4.00
2019-01-15T19:26:22.021Z,4.00
2019-01-15T19:29:04.122Z,4.00
2019-01-15T19:31:56.383Z,4.00
2019-01-15T19:34:41.144Z,4.00
2019-01-15T19:37:28.948Z,4.10
2019-01-15T19:40:27.166Z,4.10
2019-01-15T19:43:15.201Z,4.10
2019-01-15T19:46:16.628Z,4.10
2019-01-15T19:49:05.977Z,4.10
2019-01-15T19:51:53.982Z,4.20
2019-01-15T19:54:58.449Z,4.20
2019-01-15T19:57:56.679Z,4.20
2019-01-15T20:00:35.031Z,4.20
2019-01-15T20:03:23.130Z,4.20
2019-01-15T20:06:11.357Z,4.30
2019-01-15T20:09:00.493Z,4.20
2019-01-15T20:11:45.926Z,4.20
2019-01-15T20:14:35.041Z,4.30
2019-01-15T20:17:23.671Z,4.30
2019-01-15T20:20:25.175Z,4.30
2019-01-15T20:23:13.242Z,4.30
2019-01-15T20:26:02.382Z,4.30
2019-01-15T20:28:46.550Z,4.30
2019-01-15T20:31:33.244Z,4.30
2019-01-15T20:34:21.458Z,4.30
2019-01-15T20:37:10.664Z,4.40
2019-01-15T20:40:02.610Z,4.40
2019-01-15T20:43:02.297Z,4.40
2019-01-15T20:45:51.155Z,4.40
2019-01-15T20:48:43.225Z,4.40
2019-01-15T20:51:40.734Z,4.50
2019-01-15T20:54:38.620Z,4.50
2019-01-15T20:57:26.545Z,4.50
2019-01-15T21:00:21.613Z,4.60
2019-01-15T21:03:12.814Z,4.60
2019-01-15T21:06:08.463Z,4.60
2019-01-15T21:08:56.547Z,4.60
2019-01-15T21:11:46.170Z,4.70
2019-01-15T21:14:34.398Z,4.70
2019-01-15T21:17:18.920Z,4.70
2019-01-15T21:20:06.652Z,4.70
2019-01-15T21:22:58.891Z,4.80
2019-01-15T21:25:57.590Z,4.80
2019-01-15T21:28:45.765Z,4.80
2019-01-15T21:31:34.836Z,4.90
2019-01-15T21:34:23.939Z,4.90
2019-01-15T21:37:14.120Z,4.90
2019-01-15T21:40:01.932Z,4.90
2019-01-15T21:42:50.286Z,5.00
2019-01-15T21:45:33.361Z,5.00
2019-01-15T21:48:21.180Z,5.00
2019-01-15T21:51:13.704Z,4.90
2019-01-15T21:54:11.894Z,4.90
2019-01-15T21:56:59.845Z,5.00
2019-01-15T21:59:48.919Z,4.90
2019-01-15T22:02:37.997Z,4.90
2019-01-15T22:05:36.441Z,4.90
2019-01-15T22:08:19.398Z,4.90
2019-01-15T22:11:07.729Z,4.90
2019-01-15T22:13:56.829Z,4.90
2019-01-15T22:16:50.748Z,4.90
2019-01-15T22:19:55.210Z,4.90
2019-01-15T22:22:47.590Z,4.90
2019-01-15T22:25:35.685Z,4.80
2019-01-15T22:28:34.133Z,4.80
2019-01-15T22:31:28.995Z,4.80
2019-01-15T22:34:15.598Z,4.80
2019-01-15T22:37:03.554Z,4.80
2019-01-15T22:39:52.658Z,4.80
2019-01-15T22:42:39.830Z,4.80
2019-01-15T22:45:28.351Z,4.70
2019-01-15T22:48:17.389Z,4.70
2019-01-15T22:51:10.087Z,4.70
2019-01-15T22:54:01.999Z,4.70
2019-01-15T22:56:49.837Z,4.70
2019-01-15T22:59:37.490Z,4.60
2019-01-15T23:02:29.955Z,4.60
2019-01-15T23:05:22.952Z,4.60
2019-01-15T23:08:24.448Z,4.60
2019-01-15T23:11:17.418Z,4.50
2019-01-15T23:14:15.516Z,4.50
2019-01-15T23:16:56.574Z,4.50
2019-01-15T23:19:54.811Z,4.40
2019-01-15T23:22:43.260Z,4.40
2019-01-15T23:25:44.936Z,4.30
2019-01-15T23:28:46.064Z,4.40
2019-01-15T23:31:41.387Z,4.30
2019-01-15T23:34:30.625Z,4.30
2019-01-15T23:37:22.254Z,4.40
2019-01-15T23:40:08.955Z,4.30
2019-01-15T23:43:17.176Z,4.30
2019-01-15T23:46:12.690Z,4.30
2019-01-15T23:49:08.397Z,4.30
2019-01-15T23:51:58.955Z,4.30
2019-01-15T23:55:06.228Z,4.30
2019-01-15T23:57:54.718Z,4.20
